sensor_id;sensor_type;location;lat;lon;timestamp;pressure;altitude;pressure_sealevel;temperature;humidity
24762;BME280;12865;51.934;10.330;2024-01-27T00:02:13;100527.41;;;4.81;100.00
24762;BME280;12865;51.934;10.330;2024-01-27T00:04:59;100532.16;;;4.92;100.00
24762;BME280;12865;51.934;10.330;2024-01-27T00:07:44;100543.31;;;4.80;100.00
24762;BME280;12865;51.934;10.330;2024-01-27T00:10:30;100533.75;;;4.77;100.00
24762;BME280;12865;51.934;10.330;2024-01-27T00:13:16;100525.81;;;4.77;100.00
24762;BME280;12865;51.934;10.330;2024-01-27T00:16:01;100535.41;;;4.80;100.00
24762;BME280;12865;51.934;10.330;2024-01-27T00:18:47;100535.75;;;4.72;100.00
24762;BME280;12865;51.934;10.330;2024-01-27T00:21:33;100537.53;;;4.71;100.00
24762;BME280;12865;51.934;10.330;2024-01-27T00:24:18;100526.66;;;4.78;100.00
24762;BME280;12865;51.934;10.330;2024-01-27T00:27:04;100549.25;;;4.85;100.00
24762;BME280;12865;51.934;10.330;2024-01-27T00:29:50;100543.72;;;4.70;100.00
24762;BME280;12865;51.934;10.330;2024-01-27T00:32:35;100541.38;;;4.64;100.00
24762;BME280;12865;51.934;10.330;2024-01-27T00:35:21;100546.09;;;4.58;100.00
24762;BME280;12865;51.934;10.330;2024-01-27T00:38:07;100554.88;;;4.58;100.00
24762;BME280;12865;51.934;10.330;2024-01-27T00:40:52;100556.72;;;4.56;100.00
24762;BME280;12865;51.934;10.330;2024-01-27T00:43:38;100548.31;;;4.48;100.00
24762;BME280;12865;51.934;10.330;2024-01-27T00:46:24;100553.59;;;4.48;100.00
24762;BME280;12865;51.934;10.330;2024-01-27T00:49:10;100557.38;;;4.61;100.00
24762;BME280;12865;51.934;10.330;2024-01-27T00:51:55;100566.63;;;4.51;100.00
24762;BME280;12865;51.934;10.330;2024-01-27T00:54:41;100565.44;;;4.58;100.00
24762;BME280;12865;51.934;10.330;2024-01-27T00:57:27;100571.97;;;4.50;100.00
24762;BME280;12865;51.934;10.330;2024-01-27T01:00:13;100567.16;;;4.59;100.00
24762;BME280;12865;51.934;10.330;2024-01-27T01:02:59;100564.72;;;4.55;100.00
24762;BME280;12865;51.934;10.330;2024-01-27T01:05:44;100579.13;;;4.48;100.00
24762;BME280;12865;51.934;10.330;2024-01-27T01:08:31;100573.41;;;4.57;100.00
24762;BME280;12865;51.934;10.330;2024-01-27T01:11:17;100584.25;;;4.51;100.00
24762;BME280;12865;51.934;10.330;2024-01-27T01:14:03;100580.13;;;4.45;100.00
24762;BME280;12865;51.934;10.330;2024-01-27T01:16:48;100566.84;;;4.47;100.00
24762;BME280;12865;51.934;10.330;2024-01-27T01:19:35;100585.44;;;4.44;100.00
24762;BME280;12865;51.934;10.330;2024-01-27T01:22:21;100584.59;;;4.43;100.00
24762;BME280;12865;51.934;10.330;2024-01-27T01:25:07;100588.94;;;4.44;100.00
24762;BME280;12865;51.934;10.330;2024-01-27T01:27:52;100578.53;;;4.41;100.00
24762;BME280;12865;51.934;10.330;2024-01-27T01:30:38;100579.53;;;4.39;100.00
24762;BME280;12865;51.934;10.330;2024-01-27T01:33:24;100581.69;;;4.49;100.00
24762;BME280;12865;51.934;10.330;2024-01-27T01:36:10;100583.81;;;4.41;100.00
24762;BME280;12865;51.934;10.330;2024-01-27T01:38:55;100590.03;;;4.40;100.00
24762;BME280;12865;51.934;10.330;2024-01-27T01:41:41;100591.28;;;4.31;100.00
24762;BME280;12865;51.934;10.330;2024-01-27T01:44:30;100585.09;;;4.32;100.00
24762;BME280;12865;51.934;10.330;2024-01-27T01:47:17;100587.56;;;4.35;100.00
24762;BME280;12865;51.934;10.330;2024-01-27T01:50:05;100595.97;;;4.25;100.00
24762;BME280;12865;51.934;10.330;2024-01-27T01:52:51;100584.50;;;4.26;100.00
24762;BME280;12865;51.934;10.330;2024-01-27T01:55:39;100593.59;;;4.19;100.00
24762;BME280;12865;51.934;10.330;2024-01-27T01:58:25;100601.31;;;4.23;100.00
24762;BME280;12865;51.934;10.330;2024-01-27T02:01:10;100604.00;;;4.22;100.00
24762;BME280;12865;51.934;10.330;2024-01-27T02:03:57;100594.38;;;4.21;100.00
24762;BME280;12865;51.934;10.330;2024-01-27T02:06:42;100600.59;;;4.20;100.00
24762;BME280;12865;51.934;10.330;2024-01-27T02:09:28;100596.56;;;4.31;100.00
24762;BME280;12865;51.934;10.330;2024-01-27T02:12:15;100595.16;;;4.23;100.00
24762;BME280;12865;51.934;10.330;2024-01-27T02:15:00;100586.72;;;4.35;100.00
24762;BME280;12865;51.934;10.330;2024-01-27T02:17:46;100595.22;;;4.21;100.00
24762;BME280;12865;51.934;10.330;2024-01-27T02:20:31;100590.09;;;4.18;100.00
24762;BME280;12865;51.934;10.330;2024-01-27T02:23:17;100590.31;;;4.34;100.00
24762;BME280;12865;51.934;10.330;2024-01-27T02:26:03;100592.06;;;4.33;100.00
24762;BME280;12865;51.934;10.330;2024-01-27T02:28:49;100590.75;;;4.23;100.00
24762;BME280;12865;51.934;10.330;2024-01-27T02:31:34;100586.44;;;4.21;100.00
24762;BME280;12865;51.934;10.330;2024-01-27T02:34:20;100589.44;;;4.33;100.00
24762;BME280;12865;51.934;10.330;2024-01-27T02:37:05;100599.19;;;4.31;100.00
24762;BME280;12865;51.934;10.330;2024-01-27T02:39:51;100584.59;;;4.23;100.00
24762;BME280;12865;51.934;10.330;2024-01-27T02:42:37;100604.81;;;4.24;100.00
24762;BME280;12865;51.934;10.330;2024-01-27T02:45:23;100609.16;;;4.25;100.00
24762;BME280;12865;51.934;10.330;2024-01-27T02:48:08;100620.69;;;4.22;100.00
24762;BME280;12865;51.934;10.330;2024-01-27T02:50:54;100641.81;;;4.22;100.00
24762;BME280;12865;51.934;10.330;2024-01-27T02:53:40;100639.13;;;4.24;100.00
24762;BME280;12865;51.934;10.330;2024-01-27T02:56:25;100635.88;;;4.17;100.00
24762;BME280;12865;51.934;10.330;2024-01-27T02:59:11;100645.06;;;4.29;100.00
24762;BME280;12865;51.934;10.330;2024-01-27T03:01:57;100640.19;;;4.20;100.00
24762;BME280;12865;51.934;10.330;2024-01-27T03:04:43;100646.97;;;4.25;100.00
24762;BME280;12865;51.934;10.330;2024-01-27T03:07:28;100649.13;;;4.16;100.00
24762;BME280;12865;51.934;10.330;2024-01-27T03:10:14;100666.63;;;4.18;100.00
24762;BME280;12865;51.934;10.330;2024-01-27T03:13:00;100662.22;;;4.19;100.00
24762;BME280;12865;51.934;10.330;2024-01-27T03:15:45;100666.50;;;4.21;100.00
24762;BME280;12865;51.934;10.330;2024-01-27T03:18:31;100673.22;;;4.08;100.00
24762;BME280;12865;51.934;10.330;2024-01-27T03:21:16;100673.16;;;4.10;100.00
24762;BME280;12865;51.934;10.330;2024-01-27T03:24:02;100682.91;;;4.08;100.00
24762;BME280;12865;51.934;10.330;2024-01-27T03:26:48;100679.91;;;4.17;100.00
24762;BME280;12865;51.934;10.330;2024-01-27T03:29:34;100681.19;;;4.07;100.00
24762;BME280;12865;51.934;10.330;2024-01-27T03:32:19;100681.19;;;4.07;100.00
24762;BME280;12865;51.934;10.330;2024-01-27T03:35:05;100670.56;;;4.08;100.00
24762;BME280;12865;51.934;10.330;2024-01-27T03:37:51;100673.41;;;4.04;100.00
24762;BME280;12865;51.934;10.330;2024-01-27T03:40:37;100674.28;;;4.04;100.00
24762;BME280;12865;51.934;10.330;2024-01-27T03:43:22;100689.97;;;4.07;100.00
24762;BME280;12865;51.934;10.330;2024-01-27T03:46:08;100697.34;;;3.99;100.00
24762;BME280;12865;51.934;10.330;2024-01-27T03:48:54;100694.56;;;4.02;100.00
24762;BME280;12865;51.934;10.330;2024-01-27T03:51:39;100706.84;;;4.03;100.00
24762;BME280;12865;51.934;10.330;2024-01-27T03:54:25;100700.78;;;4.01;100.00
24762;BME280;12865;51.934;10.330;2024-01-27T03:57:11;100714.88;;;4.00;100.00
24762;BME280;12865;51.934;10.330;2024-01-27T03:59:56;100715.63;;;4.04;100.00
24762;BME280;12865;51.934;10.330;2024-01-27T04:02:42;100709.84;;;4.16;100.00
24762;BME280;12865;51.934;10.330;2024-01-27T04:05:29;100715.50;;;4.07;100.00
24762;BME280;12865;51.934;10.330;2024-01-27T04:08:15;100716.66;;;4.00;100.00
24762;BME280;12865;51.934;10.330;2024-01-27T04:11:00;100711.22;;;4.04;100.00
24762;BME280;12865;51.934;10.330;2024-01-27T04:13:46;100706.66;;;4.08;100.00
24762;BME280;12865;51.934;10.330;2024-01-27T04:16:32;100707.47;;;4.10;100.00
24762;BME280;12865;51.934;10.330;2024-01-27T04:19:18;100716.75;;;3.98;100.00
24762;BME280;12865;51.934;10.330;2024-01-27T04:22:03;100731.09;;;3.91;100.00
24762;BME280;12865;51.934;10.330;2024-01-27T04:24:49;100720.97;;;4.02;100.00
24762;BME280;12865;51.934;10.330;2024-01-27T04:27:40;100720.59;;;3.89;100.00
24762;BME280;12865;51.934;10.330;2024-01-27T04:30:26;100727.28;;;3.98;100.00
24762;BME280;12865;51.934;10.330;2024-01-27T04:33:12;100727.41;;;3.95;100.00
24762;BME280;12865;51.934;10.330;2024-01-27T04:35:58;100730.09;;;3.93;100.00
24762;BME280;12865;51.934;10.330;2024-01-27T04:38:44;100742.13;;;4.01;100.00
24762;BME280;12865;51.934;10.330;2024-01-27T04:41:29;100746.53;;;4.00;100.00
24762;BME280;12865;51.934;10.330;2024-01-27T04:44:15;100744.50;;;4.07;100.00
24762;BME280;12865;51.934;10.330;2024-01-27T04:47:01;100749.19;;;4.00;100.00
24762;BME280;12865;51.934;10.330;2024-01-27T04:49:47;100741.56;;;3.92;100.00
24762;BME280;12865;51.934;10.330;2024-01-27T04:52:32;100748.09;;;3.84;100.00
24762;BME280;12865;51.934;10.330;2024-01-27T04:55:18;100749.63;;;3.89;100.00
24762;BME280;12865;51.934;10.330;2024-01-27T04:58:04;100751.50;;;3.86;100.00
24762;BME280;12865;51.934;10.330;2024-01-27T05:00:50;100748.81;;;3.87;100.00
24762;BME280;12865;51.934;10.330;2024-01-27T05:03:36;100746.94;;;3.91;100.00
24762;BME280;12865;51.934;10.330;2024-01-27T05:06:22;100750.84;;;3.81;100.00
24762;BME280;12865;51.934;10.330;2024-01-27T05:09:07;100751.84;;;3.78;100.00
24762;BME280;12865;51.934;10.330;2024-01-27T05:11:53;100757.22;;;3.75;100.00
24762;BME280;12865;51.934;10.330;2024-01-27T05:14:43;100765.03;;;3.78;100.00
24762;BME280;12865;51.934;10.330;2024-01-27T05:17:29;100761.81;;;3.70;100.00
24762;BME280;12865;51.934;10.330;2024-01-27T05:20:15;100759.91;;;3.74;100.00
24762;BME280;12865;51.934;10.330;2024-01-27T05:23:00;100768.25;;;3.63;100.00
24762;BME280;12865;51.934;10.330;2024-01-27T05:25:46;100771.44;;;3.71;100.00
24762;BME280;12865;51.934;10.330;2024-01-27T05:28:32;100784.75;;;3.68;100.00
24762;BME280;12865;51.934;10.330;2024-01-27T05:31:17;100782.84;;;3.72;100.00
24762;BME280;12865;51.934;10.330;2024-01-27T05:34:03;100791.78;;;3.68;100.00
24762;BME280;12865;51.934;10.330;2024-01-27T05:36:50;100787.72;;;3.59;100.00
24762;BME280;12865;51.934;10.330;2024-01-27T05:39:35;100786.69;;;3.63;100.00
24762;BME280;12865;51.934;10.330;2024-01-27T05:42:21;100782.56;;;3.56;100.00
24762;BME280;12865;51.934;10.330;2024-01-27T05:45:07;100782.66;;;3.53;100.00
24762;BME280;12865;51.934;10.330;2024-01-27T05:47:53;100776.81;;;3.68;100.00
24762;BME280;12865;51.934;10.330;2024-01-27T05:50:42;100785.41;;;3.73;100.00
24762;BME280;12865;51.934;10.330;2024-01-27T05:53:27;100785.78;;;3.64;100.00
24762;BME280;12865;51.934;10.330;2024-01-27T05:56:13;100785.78;;;3.64;100.00
24762;BME280;12865;51.934;10.330;2024-01-27T05:58:59;100792.41;;;3.74;100.00
24762;BME280;12865;51.934;10.330;2024-01-27T06:01:45;100791.22;;;3.60;100.00
24762;BME280;12865;51.934;10.330;2024-01-27T06:04:31;100784.91;;;3.64;100.00
24762;BME280;12865;51.934;10.330;2024-01-27T06:07:18;100799.31;;;3.55;100.00
24762;BME280;12865;51.934;10.330;2024-01-27T06:10:06;100788.81;;;3.53;100.00
24762;BME280;12865;51.934;10.330;2024-01-27T06:12:52;100794.03;;;3.55;100.00
24762;BME280;12865;51.934;10.330;2024-01-27T06:15:38;100792.41;;;3.51;100.00
24762;BME280;12865;51.934;10.330;2024-01-27T06:18:23;100792.41;;;3.51;100.00
24762;BME280;12865;51.934;10.330;2024-01-27T06:21:10;100791.44;;;3.53;100.00
24762;BME280;12865;51.934;10.330;2024-01-27T06:23:56;100797.91;;;3.45;100.00
24762;BME280;12865;51.934;10.330;2024-01-27T06:26:41;100800.31;;;3.51;100.00
24762;BME280;12865;51.934;10.330;2024-01-27T06:29:27;100795.03;;;3.51;100.00
24762;BME280;12865;51.934;10.330;2024-01-27T06:32:14;100791.72;;;3.46;100.00
24762;BME280;12865;51.934;10.330;2024-01-27T06:35:01;100784.69;;;3.46;100.00
24762;BME280;12865;51.934;10.330;2024-01-27T06:37:46;100791.22;;;3.36;100.00
24762;BME280;12865;51.934;10.330;2024-01-27T06:40:32;100785.94;;;3.36;100.00
24762;BME280;12865;51.934;10.330;2024-01-27T06:43:18;100797.50;;;3.32;100.00
24762;BME280;12865;51.934;10.330;2024-01-27T06:46:03;100787.13;;;3.28;100.00
24762;BME280;12865;51.934;10.330;2024-01-27T06:48:49;100784.78;;;3.20;100.00
24762;BME280;12865;51.934;10.330;2024-01-27T06:51:35;100795.94;;;3.27;100.00
24762;BME280;12865;51.934;10.330;2024-01-27T06:54:20;100795.38;;;3.19;100.00
24762;BME280;12865;51.934;10.330;2024-01-27T06:57:06;100802.31;;;3.21;100.00
24762;BME280;12865;51.934;10.330;2024-01-27T06:59:52;100822.41;;;3.24;100.00
24762;BME280;12865;51.934;10.330;2024-01-27T07:02:38;100820.69;;;3.23;100.00
24762;BME280;12865;51.934;10.330;2024-01-27T07:05:23;100820.03;;;3.16;100.00
24762;BME280;12865;51.934;10.330;2024-01-27T07:08:09;100827.94;;;3.16;100.00
24762;BME280;12865;51.934;10.330;2024-01-27T07:10:55;100831.91;;;3.03;100.00
24762;BME280;12865;51.934;10.330;2024-01-27T07:13:41;100836.44;;;2.99;100.00
24762;BME280;12865;51.934;10.330;2024-01-27T07:16:27;100840.72;;;3.02;100.00
24762;BME280;12865;51.934;10.330;2024-01-27T07:19:12;100847.06;;;2.96;100.00
24762;BME280;12865;51.934;10.330;2024-01-27T07:21:59;100840.00;;;2.98;100.00
24762;BME280;12865;51.934;10.330;2024-01-27T07:24:49;100851.34;;;3.00;100.00
24762;BME280;12865;51.934;10.330;2024-01-27T07:27:36;100850.53;;;2.98;100.00
24762;BME280;12865;51.934;10.330;2024-01-27T07:30:22;100850.38;;;3.03;100.00
24762;BME280;12865;51.934;10.330;2024-01-27T07:33:08;100842.78;;;2.94;100.00
24762;BME280;12865;51.934;10.330;2024-01-27T07:35:54;100858.66;;;2.92;100.00
24762;BME280;12865;51.934;10.330;2024-01-27T07:38:40;100854.03;;;2.99;100.00
24762;BME280;12865;51.934;10.330;2024-01-27T07:41:25;100846.16;;;2.97;100.00
24762;BME280;12865;51.934;10.330;2024-01-27T07:44:13;100844.31;;;3.01;100.00
24762;BME280;12865;51.934;10.330;2024-01-27T07:46:59;100838.19;;;3.00;100.00
24762;BME280;12865;51.934;10.330;2024-01-27T07:49:45;100840.59;;;3.06;100.00
24762;BME280;12865;51.934;10.330;2024-01-27T07:52:31;100844.13;;;3.05;100.00
24762;BME280;12865;51.934;10.330;2024-01-27T07:55:17;100843.88;;;3.13;100.00
24762;BME280;12865;51.934;10.330;2024-01-27T07:58:02;100851.09;;;3.08;100.00
24762;BME280;12865;51.934;10.330;2024-01-27T08:00:48;100860.75;;;3.07;100.00
24762;BME280;12865;51.934;10.330;2024-01-27T08:03:34;100862.31;;;3.13;100.00
24762;BME280;12865;51.934;10.330;2024-01-27T08:06:27;100861.25;;;3.19;100.00
24762;BME280;12865;51.934;10.330;2024-01-27T08:09:13;100864.56;;;3.24;100.00
24762;BME280;12865;51.934;10.330;2024-01-27T08:11:59;100867.00;;;3.30;100.00
24762;BME280;12865;51.934;10.330;2024-01-27T08:14:45;100872.97;;;3.35;100.00
24762;BME280;12865;51.934;10.330;2024-01-27T08:17:30;100877.28;;;3.37;100.00
24762;BME280;12865;51.934;10.330;2024-01-27T08:20:16;100889.28;;;3.46;100.00
24762;BME280;12865;51.934;10.330;2024-01-27T08:23:02;100893.41;;;3.53;100.00
24762;BME280;12865;51.934;10.330;2024-01-27T08:25:48;100905.66;;;3.55;100.00
24762;BME280;12865;51.934;10.330;2024-01-27T08:28:38;100906.06;;;3.68;100.00
24762;BME280;12865;51.934;10.330;2024-01-27T08:31:23;100914.78;;;3.70;100.00
24762;BME280;12865;51.934;10.330;2024-01-27T08:34:09;100913.56;;;3.79;100.00
24762;BME280;12865;51.934;10.330;2024-01-27T08:37:00;100915.16;;;3.84;100.00
24762;BME280;12865;51.934;10.330;2024-01-27T08:39:46;100912.78;;;4.00;100.00
24762;BME280;12865;51.934;10.330;2024-01-27T08:42:31;100920.69;;;4.00;100.00
24762;BME280;12865;51.934;10.330;2024-01-27T08:45:17;100914.41;;;4.04;100.00
24762;BME280;12865;51.934;10.330;2024-01-27T08:48:03;100905.28;;;4.13;100.00
24762;BME280;12865;51.934;10.330;2024-01-27T08:50:49;100903.09;;;4.24;100.00
24762;BME280;12865;51.934;10.330;2024-01-27T08:53:34;100904.94;;;4.22;100.00
24762;BME280;12865;51.934;10.330;2024-01-27T08:56:20;100905.41;;;4.33;100.00
24762;BME280;12865;51.934;10.330;2024-01-27T08:59:06;100918.31;;;4.41;100.00
24762;BME280;12865;51.934;10.330;2024-01-27T09:01:52;100909.75;;;4.56;100.00
24762;BME280;12865;51.934;10.330;2024-01-27T09:04:37;100907.50;;;4.68;100.00
24762;BME280;12865;51.934;10.330;2024-01-27T09:07:24;100898.66;;;4.69;100.00
24762;BME280;12865;51.934;10.330;2024-01-27T09:10:09;100902.66;;;4.80;100.00
24762;BME280;12865;51.934;10.330;2024-01-27T09:12:58;100915.91;;;4.78;100.00
24762;BME280;12865;51.934;10.330;2024-01-27T09:15:43;100912.72;;;4.92;100.00
24762;BME280;12865;51.934;10.330;2024-01-27T09:18:29;100938.88;;;4.98;100.00
24762;BME280;12865;51.934;10.330;2024-01-27T09:21:14;100932.97;;;5.13;100.00
24762;BME280;12865;51.934;10.330;2024-01-27T09:24:05;100933.09;;;5.32;100.00
24762;BME280;12865;51.934;10.330;2024-01-27T09:26:51;100934.19;;;5.26;100.00
24762;BME280;12865;51.934;10.330;2024-01-27T09:29:37;100936.38;;;5.37;100.00
24762;BME280;12865;51.934;10.330;2024-01-27T09:32:22;100933.59;;;5.40;100.00
24762;BME280;12865;51.934;10.330;2024-01-27T09:35:08;100943.41;;;5.38;100.00
24762;BME280;12865;51.934;10.330;2024-01-27T09:37:54;100927.06;;;5.48;100.00
24762;BME280;12865;51.934;10.330;2024-01-27T09:40:40;100938.44;;;5.50;100.00
24762;BME280;12865;51.934;10.330;2024-01-27T09:43:27;100931.97;;;5.58;100.00
24762;BME280;12865;51.934;10.330;2024-01-27T09:46:15;100943.16;;;5.64;100.00
24762;BME280;12865;51.934;10.330;2024-01-27T09:49:02;100948.22;;;5.69;100.00
24762;BME280;12865;51.934;10.330;2024-01-27T09:51:48;100929.25;;;5.79;100.00
24762;BME280;12865;51.934;10.330;2024-01-27T09:54:35;100937.91;;;5.83;100.00
24762;BME280;12865;51.934;10.330;2024-01-27T09:57:21;100947.03;;;5.76;100.00
24762;BME280;12865;51.934;10.330;2024-01-27T10:00:10;100942.88;;;5.90;100.00
24762;BME280;12865;51.934;10.330;2024-01-27T10:02:59;100951.88;;;6.07;100.00
24762;BME280;12865;51.934;10.330;2024-01-27T10:05:45;100940.97;;;5.94;100.00
24762;BME280;12865;51.934;10.330;2024-01-27T10:08:31;100956.63;;;6.19;100.00
24762;BME280;12865;51.934;10.330;2024-01-27T10:11:17;100966.44;;;6.36;100.00
24762;BME280;12865;51.934;10.330;2024-01-27T10:14:06;100950.13;;;6.45;100.00
24762;BME280;12865;51.934;10.330;2024-01-27T10:16:51;100960.94;;;6.40;100.00
24762;BME280;12865;51.934;10.330;2024-01-27T10:19:37;100963.22;;;6.48;100.00
24762;BME280;12865;51.934;10.330;2024-01-27T10:22:23;100969.72;;;6.59;100.00
24762;BME280;12865;51.934;10.330;2024-01-27T10:25:09;100968.31;;;6.52;100.00
24762;BME280;12865;51.934;10.330;2024-01-27T10:27:58;100969.59;;;6.62;100.00
24762;BME280;12865;51.934;10.330;2024-01-27T10:30:44;100962.06;;;6.53;100.00
24762;BME280;12865;51.934;10.330;2024-01-27T10:33:30;100953.25;;;6.53;100.00
24762;BME280;12865;51.934;10.330;2024-01-27T10:36:17;100961.72;;;6.42;100.00
24762;BME280;12865;51.934;10.330;2024-01-27T10:39:16;100949.25;;;6.63;100.00
24762;BME280;12865;51.934;10.330;2024-01-27T10:42:02;100960.22;;;6.55;100.00
24762;BME280;12865;51.934;10.330;2024-01-27T10:44:48;100954.41;;;6.66;99.87
24762;BME280;12865;51.934;10.330;2024-01-27T10:47:35;100953.72;;;6.62;100.00
24762;BME280;12865;51.934;10.330;2024-01-27T10:50:21;100945.44;;;6.87;99.29
24762;BME280;12865;51.934;10.330;2024-01-27T10:53:13;100948.50;;;6.97;98.96
24762;BME280;12865;51.934;10.330;2024-01-27T10:56:03;100946.09;;;6.92;100.00
24762;BME280;12865;51.934;10.330;2024-01-27T10:58:54;100948.19;;;6.86;98.09
24762;BME280;12865;51.934;10.330;2024-01-27T11:01:42;100948.44;;;6.98;100.00
24762;BME280;12865;51.934;10.330;2024-01-27T11:04:28;100948.50;;;6.97;99.21
24762;BME280;12865;51.934;10.330;2024-01-27T11:07:14;100951.09;;;6.98;99.90
24762;BME280;12865;51.934;10.330;2024-01-27T11:10:00;100949.59;;;6.93;100.00
24762;BME280;12865;51.934;10.330;2024-01-27T11:12:47;100950.66;;;7.07;100.00
24762;BME280;12865;51.934;10.330;2024-01-27T11:15:33;100957.03;;;7.03;100.00
24762;BME280;12865;51.934;10.330;2024-01-27T11:18:19;100947.94;;;6.90;100.00
24762;BME280;12865;51.934;10.330;2024-01-27T11:21:05;100956.50;;;6.78;100.00
24762;BME280;12865;51.934;10.330;2024-01-27T11:23:51;100954.34;;;6.86;100.00
24762;BME280;12865;51.934;10.330;2024-01-27T11:26:36;100954.59;;;6.80;100.00
24762;BME280;12865;51.934;10.330;2024-01-27T11:29:22;100965.38;;;6.77;100.00
24762;BME280;12865;51.934;10.330;2024-01-27T11:32:08;100956.59;;;6.94;100.00
24762;BME280;12865;51.934;10.330;2024-01-27T11:34:55;100950.91;;;7.01;100.00
24762;BME280;12865;51.934;10.330;2024-01-27T11:37:41;100949.63;;;7.10;100.00
24762;BME280;12865;51.934;10.330;2024-01-27T11:40:26;100939.66;;;7.32;100.00
24762;BME280;12865;51.934;10.330;2024-01-27T11:43:12;100935.84;;;7.21;100.00
24762;BME280;12865;51.934;10.330;2024-01-27T11:46:01;100936.59;;;7.23;99.85
24762;BME280;12865;51.934;10.330;2024-01-27T11:48:47;100934.50;;;7.29;99.82
24762;BME280;12865;51.934;10.330;2024-01-27T11:51:34;100940.13;;;7.23;99.40
24762;BME280;12865;51.934;10.330;2024-01-27T11:54:20;100927.41;;;7.30;99.99
24762;BME280;12865;51.934;10.330;2024-01-27T11:57:06;100928.44;;;7.44;99.72
24762;BME280;12865;51.934;10.330;2024-01-27T11:59:52;100935.22;;;7.50;98.13
24762;BME280;12865;51.934;10.330;2024-01-27T12:02:38;100929.06;;;7.49;97.44
24762;BME280;12865;51.934;10.330;2024-01-27T12:05:24;100932.03;;;7.26;97.43
24762;BME280;12865;51.934;10.330;2024-01-27T12:08:10;100937.63;;;7.37;98.46
24762;BME280;12865;51.934;10.330;2024-01-27T12:10:56;100925.41;;;7.35;98.33
24762;BME280;12865;51.934;10.330;2024-01-27T12:13:41;100921.63;;;7.39;98.53
24762;BME280;12865;51.934;10.330;2024-01-27T12:16:28;100923.28;;;7.41;98.41
24762;BME280;12865;51.934;10.330;2024-01-27T12:19:14;100930.16;;;7.45;97.39
24762;BME280;12865;51.934;10.330;2024-01-27T12:22:00;100936.00;;;7.35;97.95
24762;BME280;12865;51.934;10.330;2024-01-27T12:24:48;100932.00;;;7.43;97.98
24762;BME280;12865;51.934;10.330;2024-01-27T12:27:34;100928.38;;;7.29;97.65
24762;BME280;12865;51.934;10.330;2024-01-27T12:30:21;100925.09;;;7.41;98.47
24762;BME280;12865;51.934;10.330;2024-01-27T12:33:12;100935.94;;;7.54;98.46
24762;BME280;12865;51.934;10.330;2024-01-27T12:35:58;100926.50;;;7.48;96.41
24762;BME280;12865;51.934;10.330;2024-01-27T12:38:47;100927.56;;;7.61;97.74
24762;BME280;12865;51.934;10.330;2024-01-27T12:41:32;100952.25;;;7.63;96.30
24762;BME280;12865;51.934;10.330;2024-01-27T12:44:19;100953.88;;;7.66;95.80
24762;BME280;12865;51.934;10.330;2024-01-27T12:47:05;100960.22;;;7.63;94.47
24762;BME280;12865;51.934;10.330;2024-01-27T12:49:51;100946.78;;;7.49;94.23
24762;BME280;12865;51.934;10.330;2024-01-27T12:52:36;100952.78;;;7.35;94.86
24762;BME280;12865;51.934;10.330;2024-01-27T12:55:22;100958.94;;;7.36;94.81
24762;BME280;12865;51.934;10.330;2024-01-27T12:58:08;100936.16;;;7.49;96.82
24762;BME280;12865;51.934;10.330;2024-01-27T13:00:53;100942.56;;;7.62;95.35
24762;BME280;12865;51.934;10.330;2024-01-27T13:03:39;100944.91;;;7.68;94.19
24762;BME280;12865;51.934;10.330;2024-01-27T13:06:25;100945.97;;;7.64;94.13
24762;BME280;12865;51.934;10.330;2024-01-27T13:09:10;100939.50;;;7.53;93.81
24762;BME280;12865;51.934;10.330;2024-01-27T13:11:59;100931.88;;;7.64;93.13
24762;BME280;12865;51.934;10.330;2024-01-27T13:14:44;100934.59;;;7.62;92.44
24762;BME280;12865;51.934;10.330;2024-01-27T13:17:30;100935.94;;;7.71;91.20
24762;BME280;12865;51.934;10.330;2024-01-27T13:20:16;100937.56;;;7.56;92.65
24762;BME280;12865;51.934;10.330;2024-01-27T13:23:03;100965.66;;;7.60;92.32
24762;BME280;12865;51.934;10.330;2024-01-27T13:25:48;100962.84;;;7.46;92.92
24762;BME280;12865;51.934;10.330;2024-01-27T13:28:34;100965.34;;;7.66;91.42
24762;BME280;12865;51.934;10.330;2024-01-27T13:31:20;100958.00;;;7.71;90.65
24762;BME280;12865;51.934;10.330;2024-01-27T13:34:06;100965.28;;;7.68;89.82
24762;BME280;12865;51.934;10.330;2024-01-27T13:36:51;100982.78;;;7.55;88.23
24762;BME280;12865;51.934;10.330;2024-01-27T13:39:37;100975.50;;;7.58;89.33
24762;BME280;12865;51.934;10.330;2024-01-27T13:42:23;100966.47;;;7.62;88.50
24762;BME280;12865;51.934;10.330;2024-01-27T13:45:08;100958.03;;;7.54;88.15
24762;BME280;12865;51.934;10.330;2024-01-27T13:47:54;100956.06;;;7.58;87.83
24762;BME280;12865;51.934;10.330;2024-01-27T13:50:40;100948.03;;;7.59;89.24
24762;BME280;12865;51.934;10.330;2024-01-27T13:53:26;100937.88;;;7.50;89.50
24762;BME280;12865;51.934;10.330;2024-01-27T13:56:12;100939.25;;;7.57;88.87
24762;BME280;12865;51.934;10.330;2024-01-27T13:58:58;100936.16;;;7.66;88.15
24762;BME280;12865;51.934;10.330;2024-01-27T14:01:44;100938.25;;;7.60;88.04
24762;BME280;12865;51.934;10.330;2024-01-27T14:04:30;100939.97;;;7.61;87.84
24762;BME280;12865;51.934;10.330;2024-01-27T14:07:15;100941.31;;;7.52;87.40
24762;BME280;12865;51.934;10.330;2024-01-27T14:10:01;100951.13;;;7.50;87.97
24762;BME280;12865;51.934;10.330;2024-01-27T14:12:47;100960.75;;;7.53;88.73
24762;BME280;12865;51.934;10.330;2024-01-27T14:15:33;100962.47;;;7.54;87.96
24762;BME280;12865;51.934;10.330;2024-01-27T14:18:18;100961.00;;;7.48;89.50
24762;BME280;12865;51.934;10.330;2024-01-27T14:21:07;100953.41;;;7.40;89.32